Oakland, Arkansas
Current Conditions -  °F | °C
As of 3:53 AM on Sunday 23 Nov 2014 (Local Time) from KBPK Reporting Station
Overcast Overcast  
Wind Chill: 54°   Ceiling: 3100
Heat Index: 54°   Visibility: 9mi
Dew Point: 51°   Wind: 6mph
Humidity: 90%   Direction: 150°SSE
Pressure: 29.7"   Gusts: NA
Location:  36.46°N, 92.57°W
Report Text: KBPK 230953Z AUTO 15005KT 9SM OVC031 12/11 A2970 RMK AO2 SLP055 T01220106
Loading
Personal Weather Stations






























Interactive Weather Map New forecast layout! Learn more

10-Day Weather Forecast

Advertisements
Track Severe Weather on mobile